Grahn, KY (41142)

9:52 PM EDT on April 30, 2017 (GMT -0400)
Green | | Change Station

Elev 883 ft 38.19 °N, 83.08 °W | Updated 8 minutes ago

Partly Cloudy
Partly Cloudy
78.4 °F
Feels Like 77 °F
N
0.0
Wind Variable Wind from North
Gusts 0.0 mph

Today
High -- | Low -- °F
--% Chance of Precip.
Yesterday
High -- | Low -- °F
Precip. -- in
Pressure 29.86 in
Visibility 10.0 miles
Clouds Clear
Heat Index 77 °F
Dew Point 27 °F
Humidity 15%
Rainfall Not available.
Snow Depth Not available.
6:36 AM 8:23 PM
Waxing Crescent, 28% visible
METAR KHTS 010051Z 17007KT 10SM CLR 27/12 A2988 RMK AO2 SLP110 T02720122
Pressure 29.86 in
Visibility 10.0 miles
Clouds Clear
Heat Index 77 °F
Dew Point 27 °F
Humidity 15%
Rainfall Not available.
Snow Depth Not available.
6:36 AM 8:23 PM
Waxing Crescent, 28% visible
METAR KHTS 010051Z 17007KT 10SM CLR 27/12 A2988 RMK AO2 SLP110 T02720122

Get Severe Weather Alerts

Thanks for signing up!

Be on the lookout for a verification email in your inbox.

You'll start receiving the daily forecast at 8 AM.

×

10-Day Weather Forecast

Almanac

Astronomy

Apr. 30, 2017 Rise Set
Actual Time
Civil Twilight
Nautical Twilight
Astronomical Twilight
Moon
Length of Visible Light
Length of Day
Tomorrow will be .
, % of the Moon is Illuminated

Today's Extremes

State Highs State Lows

Community

WunderPhotos

WunderBlog® & News

Nearby

Air Quality

  Air Quality AQ Index Pollutant
Not available.

Snow Depth

Station Depth Elevation

Earthquake Activity

City Distance Mag. Time & Date
Minimum magnitude displayed is 2.5.

Coastal Water Temperatures

Place Temperature

Stations

Nearby Weather Stations

Station Location Temp. Windchill Dew Point Humidity Wind Precip. Elev Updated Type
                   

Watches & Warnings

There are currently no watches in effect.